Time;durP1;ratioP1;P1;durP2;ratioP2;P2;SDS_P1;SDS_P2;PMS_P1;PMS_P2;Temp;Humidity;BMP_temperature;BMP_pressure;BME280_temperature;BME280_humidity;BME280_pressure;Samples;Min_cycle;Max_cycle;Signal;HPM_P1;HPM_P2
2022/12/01 00:01:21;;;;;;;7.20;1.83;;;;;;;;;;5070741;28;20041;-74
2022/12/01 00:03:49;;;;;;;4.72;2.97;;;;;;;;;;5072968;28;20482;-73
2022/12/01 00:06:19;;;;;;;7.78;3.60;;;;;;;;;;5069341;28;20401;-73
2022/12/01 00:11:32;;;;;;;6.72;3.17;;;;;;;;;;5061639;28;20512;-74
2022/12/01 00:14:00;;;;;;;5.00;2.88;;;;;;;;;;5068158;28;20084;-74
2022/12/01 00:16:29;;;;;;;10.00;2.60;;;;;;;;;;5068317;28;20049;-74
2022/12/01 00:18:57;;;;;;;8.85;3.75;;;;;;;;;;5069949;28;20448;-73
2022/12/01 00:21:26;;;;;;;5.00;1.85;;;;;;;;;;5059874;28;20052;-74
2022/12/01 00:23:56;;;;;;;6.55;2.83;;;;;;;;;;5069254;28;20061;-74
2022/12/01 00:26:25;;;;;;;11.25;4.32;;;;;;;;;;5059495;28;20061;-74
2022/12/01 00:28:55;;;;;;;5.97;2.67;;;;;;;;;;5067634;28;20045;-74
2022/12/01 00:31:23;;;;;;;4.55;2.30;;;;;;;;;;5060379;28;20060;-74
2022/12/01 00:33:52;;;;;;;9.75;3.72;;;;;;;;;;5070546;28;20508;-73
2022/12/01 00:36:20;;;;;;;4.95;2.92;;;;;;;;;;5067029;28;20045;-74
2022/12/01 00:38:48;;;;;;;7.97;2.47;;;;;;;;;;5063992;28;20045;-74
2022/12/01 00:41:17;;;;;;;11.60;3.05;;;;;;;;;;5069345;28;20396;-74
2022/12/01 00:43:45;;;;;;;5.30;3.78;;;;;;;;;;5063998;28;20048;-74
2022/12/01 00:46:15;;;;;;;6.82;4.10;;;;;;;;;;5063921;28;20481;-74
2022/12/01 00:48:43;;;;;;;6.03;3.33;;;;;;;;;;5067343;28;20051;-74
2022/12/01 00:51:11;;;;;;;11.20;2.67;;;;;;;;;;5059472;28;20072;-72
2022/12/01 00:53:40;;;;;;;15.98;3.78;;;;;;;;;;5069325;28;20506;-73
2022/12/01 00:56:08;;;;;;;8.55;3.08;;;;;;;;;;5068142;28;20063;-73
2022/12/01 00:58:36;;;;;;;12.43;5.07;;;;;;;;;;5067803;28;20404;-74
2022/12/01 01:01:05;;;;;;;6.13;3.83;;;;;;;;;;5070913;28;20547;-74
2022/12/01 01:03:35;;;;;;;12.25;3.60;;;;;;;;;;5071414;28;20048;-74
2022/12/01 01:06:07;;;;;;;3.30;2.88;;;;;;;;;;5068570;28;20098;-74
2022/12/01 01:08:35;;;;;;;9.75;3.20;;;;;;;;;;5066636;28;20053;-73
2022/12/01 01:11:04;;;;;;;9.85;2.75;;;;;;;;;;5063727;28;20044;-74
2022/12/01 01:13:32;;;;;;;4.18;3.08;;;;;;;;;;5071153;28;20366;-73
2022/12/01 01:16:02;;;;;;;7.05;2.50;;;;;;;;;;5068300;28;20051;-73
2022/12/01 01:18:30;;;;;;;12.95;3.35;;;;;;;;;;5060955;28;20056;-74
2022/12/01 01:21:01;;;;;;;15.60;2.53;;;;;;;;;;5064389;28;20048;-74
2022/12/01 01:23:29;;;;;;;7.22;2.70;;;;;;;;;;5065722;28;20056;-70
2022/12/01 01:26:01;;;;;;;20.77;4.32;;;;;;;;;;5066147;28;20048;-73
2022/12/01 01:28:30;;;;;;;11.40;5.03;;;;;;;;;;5069754;28;20046;-73
2022/12/01 01:30:59;;;;;;;10.07;2.47;;;;;;;;;;5065628;28;20052;-74
2022/12/01 01:33:27;;;;;;;8.05;4.32;;;;;;;;;;5068982;28;20461;-74
2022/12/01 01:36:00;;;;;;;10.32;4.68;;;;;;;;;;5070643;28;20055;-74
2022/12/01 01:38:28;;;;;;;2.70;1.63;;;;;;;;;;5069034;28;20560;-74
2022/12/01 01:40:56;;;;;;;10.85;4.85;;;;;;;;;;5062191;28;20052;-73
2022/12/01 01:43:42;;;;;;;8.63;2.78;;;;;;;;;;5068369;28;20045;-74
2022/12/01 01:46:11;;;;;;;7.05;3.97;;;;;;;;;;5068176;28;20049;-73
2022/12/01 01:48:41;;;;;;;2.70;1.73;;;;;;;;;;5061683;28;20050;-73
2022/12/01 01:51:11;;;;;;;4.25;2.42;;;;;;;;;;5066772;28;20045;-73
2022/12/01 01:53:39;;;;;;;5.28;4.05;;;;;;;;;;5063926;28;20058;-74
2022/12/01 01:56:09;;;;;;;9.50;3.35;;;;;;;;;;5059851;28;20050;-74
2022/12/01 01:58:38;;;;;;;10.98;3.70;;;;;;;;;;5064146;28;20044;-74
2022/12/01 02:01:07;;;;;;;2.13;2.03;;;;;;;;;;5075995;28;20064;-73
2022/12/01 02:03:37;;;;;;;6.90;3.85;;;;;;;;;;5061020;28;20049;-74
2022/12/01 02:06:05;;;;;;;3.10;2.38;;;;;;;;;;5068150;28;20052;-74
2022/12/01 02:08:37;;;;;;;4.40;3.13;;;;;;;;;;5065582;28;20099;-74
2022/12/01 02:11:15;;;;;;;8.88;3.90;;;;;;;;;;5065277;28;20570;-73
2022/12/01 02:13:48;;;;;;;7.05;3.00;;;;;;;;;;5063701;28;20044;-73
2022/12/01 02:16:19;;;;;;;5.97;2.00;;;;;;;;;;5064307;28;20051;-74
2022/12/01 02:18:51;;;;;;;20.88;4.68;;;;;;;;;;5079096;28;20549;-74
2022/12/01 02:21:36;;;;;;;5.97;2.20;;;;;;;;;;5057236;28;20045;-74
2022/12/01 02:24:23;;;;;;;7.57;1.83;;;;;;;;;;5067237;28;20060;-74
2022/12/01 02:26:56;;;;;;;5.57;4.22;;;;;;;;;;5067402;28;20048;-74
2022/12/01 02:29:38;;;;;;;7.20;3.13;;;;;;;;;;5062244;28;20063;-73
2022/12/01 02:32:12;;;;;;;8.48;4.85;;;;;;;;;;5068591;28;20048;-74
2022/12/01 02:34:43;;;;;;;11.25;2.90;;;;;;;;;;5063070;28;20059;-74
2022/12/01 02:37:16;;;;;;;3.75;2.63;;;;;;;;;;5072200;28;20413;-74
2022/12/01 02:39:49;;;;;;;2.80;2.60;;;;;;;;;;5065726;28;20485;-74
2022/12/01 02:45:03;;;;;;;;;;;;;;;;;;5074582;28;20052;-74
2022/12/01 02:47:34;;;;;;;2.33;2.05;;;;;;;;;;5069343;28;20007;-74
2022/12/01 02:50:03;;;;;;;12.27;4.45;;;;;;;;;;5069423;28;20075;-73
2022/12/01 02:52:31;;;;;;;8.95;3.15;;;;;;;;;;5062734;28;20040;-74
2022/12/01 02:54:59;;;;;;;10.90;3.17;;;;;;;;;;5070327;28;20060;-73
2022/12/01 02:57:30;;;;;;;15.48;4.75;;;;;;;;;;5066205;28;20044;-74
2022/12/01 02:59:59;;;;;;;10.20;4.18;;;;;;;;;;5067995;28;20052;-74
2022/12/01 03:02:31;;;;;;;7.25;3.50;;;;;;;;;;5064317;28;20048;-74
2022/12/01 03:05:04;;;;;;;4.53;2.60;;;;;;;;;;5067781;28;20048;-74
2022/12/01 03:07:39;;;;;;;15.48;2.83;;;;;;;;;;5068590;28;20070;-73
2022/12/01 03:10:13;;;;;;;3.97;2.08;;;;;;;;;;5069681;28;20135;-73
2022/12/01 03:12:47;;;;;;;5.80;3.78;;;;;;;;;;5068727;28;20067;-74
2022/12/01 03:15:20;;;;;;;4.15;2.40;;;;;;;;;;5057586;28;20064;-73
2022/12/01 03:17:51;;;;;;;9.30;3.85;;;;;;;;;;5065968;28;20049;-73
2022/12/01 03:20:24;;;;;;;9.15;3.13;;;;;;;;;;5068390;28;20051;-74
2022/12/01 03:22:55;;;;;;;8.68;2.85;;;;;;;;;;5069163;28;20056;-74
2022/12/01 03:25:25;;;;;;;15.23;5.75;;;;;;;;;;5070960;28;20053;-73
2022/12/01 03:27:55;;;;;;;10.65;3.80;;;;;;;;;;5069168;28;20071;-74
2022/12/01 03:30:44;;;;;;;10.65;3.78;;;;;;;;;;5070399;28;20044;-74
2022/12/01 03:33:16;;;;;;;7.57;3.90;;;;;;;;;;5069090;28;20055;-74
2022/12/01 03:35:49;;;;;;;6.60;3.60;;;;;;;;;;5068436;28;20051;-74
2022/12/01 03:38:19;;;;;;;5.03;3.28;;;;;;;;;;5067267;28;20090;-74
2022/12/01 03:40:49;;;;;;;11.15;2.75;;;;;;;;;;5062302;28;20563;-74
2022/12/01 03:43:20;;;;;;;3.17;2.67;;;;;;;;;;5067779;28;20417;-74
2022/12/01 03:45:53;;;;;;;7.82;4.97;;;;;;;;;;5067739;28;20060;-74
2022/12/01 03:48:22;;;;;;;11.48;4.05;;;;;;;;;;5060503;28;20053;-73
2022/12/01 03:50:54;;;;;;;5.22;3.30;;;;;;;;;;5070385;28;20050;-74
2022/12/01 03:53:24;;;;;;;8.85;3.70;;;;;;;;;;5067412;28;20041;-73
2022/12/01 03:55:54;;;;;;;5.00;2.60;;;;;;;;;;5073104;28;20416;-74
2022/12/01 03:58:24;;;;;;;23.63;6.78;;;;;;;;;;5070015;28;20040;-74
2022/12/01 04:00:56;;;;;;;6.82;2.95;;;;;;;;;;5065324;28;20057;-73
2022/12/01 04:03:25;;;;;;;7.20;2.55;;;;;;;;;;5061061;28;20056;-73
2022/12/01 04:05:56;;;;;;;6.47;2.45;;;;;;;;;;5061271;28;20056;-74
2022/12/01 04:08:25;;;;;;;4.68;2.45;;;;;;;;;;5059279;28;20055;-73
2022/12/01 04:10:53;;;;;;;10.95;2.58;;;;;;;;;;5069669;28;20114;-74
2022/12/01 04:13:22;;;;;;;13.65;4.80;;;;;;;;;;5065515;28;20052;-73
2022/12/01 04:15:50;;;;;;;6.07;1.98;;;;;;;;;;5069390;28;20048;-72
2022/12/01 04:18:19;;;;;;;11.75;3.28;;;;;;;;;;5079514;28;20131;-73
2022/12/01 04:20:47;;;;;;;10.90;3.35;;;;;;;;;;5057009;28;20060;-74
2022/12/01 04:26:00;;;;;;;11.45;4.47;;;;;;;;;;5044207;28;20057;-73
2022/12/01 04:28:28;;;;;;;10.95;3.75;;;;;;;;;;5052113;28;20377;-74
2022/12/01 04:30:56;;;;;;;8.60;4.30;;;;;;;;;;5056747;28;20041;-73
2022/12/01 04:33:25;;;;;;;3.35;2.72;;;;;;;;;;5050191;28;20478;-73
2022/12/01 04:35:56;;;;;;;9.38;3.40;;;;;;;;;;5050690;28;20049;-73
2022/12/01 04:38:26;;;;;;;4.05;2.03;;;;;;;;;;5058896;28;20612;-73
2022/12/01 04:40:58;;;;;;;6.28;2.17;;;;;;;;;;5046298;28;20227;-72
2022/12/01 04:43:26;;;;;;;15.73;3.10;;;;;;;;;;5056759;28;20044;-73
2022/12/01 04:45:54;;;;;;;12.32;4.43;;;;;;;;;;5047827;28;20049;-73
2022/12/01 04:48:23;;;;;;;9.52;2.72;;;;;;;;;;5047784;28;20432;-73
2022/12/01 04:50:51;;;;;;;8.25;2.88;;;;;;;;;;5043777;28;20076;-73
2022/12/01 04:53:19;;;;;;;5.38;4.13;;;;;;;;;;5052264;28;20132;-73
2022/12/01 04:55:49;;;;;;;10.48;3.35;;;;;;;;;;5054626;28;20059;-73
2022/12/01 04:58:17;;;;;;;6.05;2.45;;;;;;;;;;5049179;28;20048;-72
2022/12/01 05:00:45;;;;;;;4.50;2.67;;;;;;;;;;5048177;28;20097;-73
2022/12/01 05:03:14;;;;;;;2.88;2.42;;;;;;;;;;5060416;28;20052;-73
2022/12/01 05:05:42;;;;;;;4.72;1.95;;;;;;;;;;5052108;28;20075;-73
2022/12/01 05:08:11;;;;;;;10.05;4.20;;;;;;;;;;5041138;28;20049;-72
2022/12/01 05:10:39;;;;;;;5.55;2.47;;;;;;;;;;5042511;28;20040;-73
2022/12/01 05:13:09;;;;;;;9.90;3.72;;;;;;;;;;5053103;28;20052;-74
2022/12/01 05:15:37;;;;;;;11.27;4.40;;;;;;;;;;5048679;28;20048;-73
2022/12/01 05:18:06;;;;;;;5.35;4.00;;;;;;;;;;5055031;28;20063;-72
2022/12/01 05:23:35;;;;;;;8.38;2.53;;;;;;;;;;4969782;28;20524;-73
2022/12/01 05:26:04;;;;;;;4.63;2.55;;;;;;;;;;4979994;28;20052;-73
2022/12/01 05:28:34;;;;;;;5.68;3.13;;;;;;;;;;5023604;28;20048;-73
2022/12/01 05:31:02;;;;;;;10.95;3.65;;;;;;;;;;5062443;28;20052;-72
2022/12/01 05:33:31;;;;;;;11.68;3.47;;;;;;;;;;5061377;28;20044;-73
2022/12/01 05:35:59;;;;;;;8.48;3.50;;;;;;;;;;5064090;28;20070;-73
2022/12/01 05:38:27;;;;;;;11.70;5.18;;;;;;;;;;5062860;28;20549;-72
2022/12/01 05:40:56;;;;;;;2.55;2.08;;;;;;;;;;5063898;28;20044;-73
2022/12/01 05:43:24;;;;;;;1.67;1.17;;;;;;;;;;5069255;28;20485;-73
2022/12/01 05:45:58;;;;;;;2.42;1.92;;;;;;;;;;5067647;28;20047;-73
2022/12/01 05:48:27;;;;;;;5.93;2.17;;;;;;;;;;5061671;28;20049;-72
2022/12/01 05:50:55;;;;;;;11.75;2.90;;;;;;;;;;5052773;28;20562;-73
2022/12/01 05:53:23;;;;;;;4.20;3.17;;;;;;;;;;5057334;28;20048;-72
2022/12/01 05:55:53;;;;;;;2.75;2.38;;;;;;;;;;5067488;28;20055;-70
2022/12/01 05:58:21;;;;;;;6.30;2.15;;;;;;;;;;5064319;28;20044;-73
2022/12/01 06:00:49;;;;;;;5.75;3.33;;;;;;;;;;5059743;28;20082;-73
2022/12/01 06:03:19;;;;;;;3.70;2.17;;;;;;;;;;5062363;28;20060;-72
2022/12/01 06:05:47;;;;;;;7.63;3.58;;;;;;;;;;5061879;28;20056;-72
2022/12/01 06:08:15;;;;;;;9.02;2.97;;;;;;;;;;5064721;28;20045;-73
2022/12/01 06:10:44;;;;;;;5.40;2.38;;;;;;;;;;5069664;28;20036;-72
2022/12/01 06:13:12;;;;;;;10.18;4.20;;;;;;;;;;5067224;28;20053;-72
2022/12/01 06:15:41;;;;;;;5.00;2.75;;;;;;;;;;5058682;28;20455;-71
2022/12/01 06:18:09;;;;;;;8.57;3.17;;;;;;;;;;5065537;28;20051;-74
2022/12/01 06:20:39;;;;;;;4.40;1.85;;;;;;;;;;5060311;28;20492;-73
2022/12/01 06:23:07;;;;;;;7.63;3.60;;;;;;;;;;5066855;28;20060;-73
2022/12/01 06:25:36;;;;;;;1.98;1.77;;;;;;;;;;5064608;28;20049;-73
2022/12/01 06:28:04;;;;;;;3.88;2.88;;;;;;;;;;5080408;28;20053;-73
2022/12/01 06:30:32;;;;;;;6.97;2.78;;;;;;;;;;5058791;28;20048;-73
2022/12/01 06:33:01;;;;;;;6.63;2.72;;;;;;;;;;5069694;28;20056;-74
2022/12/01 06:35:29;;;;;;;4.00;2.90;;;;;;;;;;5063790;28;20240;-73
2022/12/01 06:37:59;;;;;;;3.80;2.15;;;;;;;;;;5054107;28;20068;-71
2022/12/01 06:40:27;;;;;;;9.60;3.47;;;;;;;;;;5061314;28;20040;-73
2022/12/01 06:42:55;;;;;;;12.98;3.50;;;;;;;;;;5064392;28;20040;-72
2022/12/01 06:45:23;;;;;;;5.30;2.65;;;;;;;;;;5065496;28;20074;-74
2022/12/01 06:47:53;;;;;;;4.38;3.50;;;;;;;;;;5057541;28;20485;-72
2022/12/01 06:50:22;;;;;;;4.85;3.20;;;;;;;;;;5062328;28;20497;-72
2022/12/01 06:52:51;;;;;;;5.47;3.63;;;;;;;;;;5059299;28;20060;-73
2022/12/01 06:55:21;;;;;;;7.45;3.97;;;;;;;;;;5066189;28;20045;-72
2022/12/01 06:57:50;;;;;;;7.78;3.80;;;;;;;;;;5066792;28;20056;-72
2022/12/01 07:00:19;;;;;;;2.92;1.83;;;;;;;;;;5065965;28;20056;-71
2022/12/01 07:02:47;;;;;;;3.55;2.15;;;;;;;;;;5065475;28;20039;-73
2022/12/01 07:05:15;;;;;;;5.65;3.17;;;;;;;;;;5058625;28;20124;-73
2022/12/01 07:07:44;;;;;;;8.80;3.08;;;;;;;;;;5068542;28;20045;-73
2022/12/01 07:10:13;;;;;;;10.35;3.15;;;;;;;;;;5065912;28;20056;-73
2022/12/01 07:12:42;;;;;;;8.93;2.15;;;;;;;;;;5064748;28;20418;-73
2022/12/01 07:15:12;;;;;;;10.10;3.30;;;;;;;;;;5061105;28;20047;-73
2022/12/01 07:17:40;;;;;;;4.65;2.83;;;;;;;;;;5071692;28;20068;-72
2022/12/01 07:20:10;;;;;;;12.90;5.18;;;;;;;;;;5056516;28;20896;-72
2022/12/01 07:22:38;;;;;;;4.10;2.58;;;;;;;;;;5059618;28;20095;-73
2022/12/01 07:25:07;;;;;;;2.97;2.42;;;;;;;;;;5067405;28;20052;-73
2022/12/01 07:27:35;;;;;;;5.80;3.03;;;;;;;;;;5065548;28;20497;-73
2022/12/01 07:30:06;;;;;;;5.63;2.25;;;;;;;;;;5065877;28;20049;-73
2022/12/01 07:32:34;;;;;;;6.57;3.50;;;;;;;;;;5068211;28;20040;-73
2022/12/01 07:35:02;;;;;;;15.18;2.92;;;;;;;;;;5067042;28;20056;-72
2022/12/01 07:37:31;;;;;;;15.70;4.60;;;;;;;;;;5069644;28;20372;-73
2022/12/01 07:39:59;;;;;;;8.00;3.00;;;;;;;;;;5068033;28;20049;-73
2022/12/01 07:42:27;;;;;;;4.45;2.90;;;;;;;;;;5066779;28;20497;-73
2022/12/01 07:44:56;;;;;;;6.28;1.98;;;;;;;;;;5067831;28;20049;-72
2022/12/01 07:47:26;;;;;;;3.58;2.25;;;;;;;;;;5072734;28;20048;-73
2022/12/01 07:49:55;;;;;;;3.80;2.30;;;;;;;;;;5064049;28;20052;-73
2022/12/01 07:52:23;;;;;;;15.85;4.65;;;;;;;;;;5071902;28;20057;-72
2022/12/01 07:54:51;;;;;;;6.80;3.22;;;;;;;;;;5070858;28;20049;-74
2022/12/01 07:57:20;;;;;;;7.15;2.28;;;;;;;;;;5071673;28;20083;-73
2022/12/01 07:59:48;;;;;;;5.57;1.58;;;;;;;;;;5072026;28;20450;-73
2022/12/01 08:02:17;;;;;;;8.25;3.45;;;;;;;;;;5072563;28;20110;-73
2022/12/01 08:04:47;;;;;;;6.47;2.35;;;;;;;;;;5061630;28;20047;-72
2022/12/01 08:07:15;;;;;;;3.22;1.95;;;;;;;;;;5069418;28;20048;-73
2022/12/01 08:09:44;;;;;;;7.03;3.22;;;;;;;;;;5064584;28;20045;-72
2022/12/01 08:12:12;;;;;;;11.82;2.78;;;;;;;;;;5069308;28;20052;-73
2022/12/01 08:14:41;;;;;;;4.22;3.10;;;;;;;;;;5072986;28;20465;-73
2022/12/01 08:17:09;;;;;;;4.90;2.92;;;;;;;;;;5066489;28;20082;-73
2022/12/01 08:19:38;;;;;;;8.55;2.70;;;;;;;;;;5070027;28;20044;-73
2022/12/01 08:22:08;;;;;;;15.60;3.88;;;;;;;;;;5072156;28;20045;-73
2022/12/01 08:24:36;;;;;;;4.35;3.22;;;;;;;;;;5059511;28;20128;-73
2022/12/01 08:27:04;;;;;;;7.68;3.20;;;;;;;;;;5067106;28;20052;-73
2022/12/01 08:29:33;;;;;;;3.67;2.97;;;;;;;;;;5072100;28;20147;-73
2022/12/01 08:32:01;;;;;;;11.52;3.65;;;;;;;;;;5073391;28;20069;-73
2022/12/01 08:34:29;;;;;;;8.57;3.75;;;;;;;;;;5073298;28;20139;-73
2022/12/01 08:36:58;;;;;;;3.60;2.40;;;;;;;;;;5069088;28;20056;-72
2022/12/01 08:39:28;;;;;;;2.78;1.88;;;;;;;;;;5069158;28;20516;-73
2022/12/01 08:41:56;;;;;;;12.52;3.63;;;;;;;;;;5059446;28;20053;-71
2022/12/01 08:44:24;;;;;;;8.60;3.33;;;;;;;;;;5071057;28;20052;-73
2022/12/01 08:46:53;;;;;;;3.95;2.17;;;;;;;;;;5059485;28;20060;-72
2022/12/01 08:49:22;;;;;;;4.53;2.13;;;;;;;;;;5066644;28;20048;-73
2022/12/01 08:51:50;;;;;;;12.05;4.25;;;;;;;;;;5066160;28;20060;-72
2022/12/01 08:54:19;;;;;;;9.80;3.67;;;;;;;;;;5068839;28;20137;-73
2022/12/01 08:56:49;;;;;;;8.35;3.13;;;;;;;;;;5065778;28;20516;-73
2022/12/01 08:59:17;;;;;;;14.55;3.38;;;;;;;;;;5067358;28;20047;-72
2022/12/01 09:01:52;;;;;;;5.10;3.05;;;;;;;;;;5060118;28;20420;-72
2022/12/01 09:04:21;;;;;;;16.98;3.90;;;;;;;;;;5062590;28;20064;-73
2022/12/01 09:06:50;;;;;;;9.57;4.07;;;;;;;;;;5066708;28;20059;-73
2022/12/01 09:09:19;;;;;;;4.72;2.42;;;;;;;;;;5059590;28;20049;-72
2022/12/01 09:11:51;;;;;;;7.35;2.65;;;;;;;;;;5061011;28;20984;-73
2022/12/01 09:14:19;;;;;;;7.70;2.42;;;;;;;;;;5062668;28;20493;-73
2022/12/01 09:16:49;;;;;;;15.10;3.80;;;;;;;;;;5066752;28;20064;-73
2022/12/01 09:19:18;;;;;;;5.80;3.38;;;;;;;;;;5066268;28;20059;-72
2022/12/01 09:21:52;;;;;;;15.15;2.78;;;;;;;;;;5055803;28;20097;-73
2022/12/01 09:24:20;;;;;;;3.88;2.10;;;;;;;;;;5062161;28;20058;-73
2022/12/01 09:26:50;;;;;;;5.60;2.33;;;;;;;;;;5062813;28;20059;-73
2022/12/01 09:29:19;;;;;;;6.32;2.13;;;;;;;;;;5065941;28;20481;-72
2022/12/01 09:31:47;;;;;;;6.95;2.72;;;;;;;;;;5063236;28;20048;-73
2022/12/01 09:34:17;;;;;;;3.45;1.88;;;;;;;;;;5066006;28;20123;-73
2022/12/01 09:36:46;;;;;;;6.65;3.08;;;;;;;;;;5062043;28;20456;-73
2022/12/01 09:39:16;;;;;;;10.05;3.13;;;;;;;;;;5062777;28;20059;-73
2022/12/01 09:41:46;;;;;;;8.80;3.58;;;;;;;;;;5063496;28;20127;-72
2022/12/01 09:44:20;;;;;;;8.32;3.38;;;;;;;;;;5065370;28;20080;-72
2022/12/01 09:46:50;;;;;;;11.18;3.17;;;;;;;;;;5065476;28;20058;-72
2022/12/01 09:49:21;;;;;;;7.32;3.45;;;;;;;;;;5061071;28;20127;-72
2022/12/01 09:51:50;;;;;;;9.00;3.08;;;;;;;;;;5062584;28;20132;-72
2022/12/01 09:54:18;;;;;;;6.38;2.33;;;;;;;;;;5063422;28;20482;-72
2022/12/01 09:56:48;;;;;;;7.40;2.95;;;;;;;;;;5068282;28;20048;-73
2022/12/01 09:59:22;;;;;;;6.03;2.28;;;;;;;;;;5069643;28;20516;-73
2022/12/01 10:01:52;;;;;;;4.45;3.45;;;;;;;;;;5063338;28;20044;-72
2022/12/01 10:04:23;;;;;;;4.97;2.10;;;;;;;;;;5065867;28;20068;-73
2022/12/01 10:06:53;;;;;;;4.45;2.88;;;;;;;;;;5074825;28;20046;-73
2022/12/01 10:09:24;;;;;;;1.80;1.63;;;;;;;;;;5072090;28;20045;-73
2022/12/01 10:11:54;;;;;;;4.07;3.17;;;;;;;;;;5068479;28;20041;-73
2022/12/01 10:14:24;;;;;;;3.22;2.58;;;;;;;;;;5065666;28;20059;-73
2022/12/01 10:16:59;;;;;;;6.43;2.58;;;;;;;;;;5068709;28;20135;-73
2022/12/01 10:19:27;;;;;;;;;;;;;;;;;;5066750;28;20434;-73
2022/12/01 10:22:01;;;;;;;7.68;3.22;;;;;;;;;;5064973;28;19924;-73
2022/12/01 10:24:36;;;;;;;12.43;2.47;;;;;;;;;;5066912;28;20044;-73
2022/12/01 10:27:04;;;;;;;;;;;;;;;;;;5067426;28;20169;-75
2022/12/01 10:29:36;;;;;;;9.90;2.22;;;;;;;;;;5066811;28;19976;-73
2022/12/01 10:32:09;;;;;;;4.85;2.58;;;;;;;;;;5068934;28;20566;-73
2022/12/01 10:34:39;;;;;;;9.00;3.20;;;;;;;;;;5064156;28;20048;-73
2022/12/01 10:37:10;;;;;;;3.63;2.25;;;;;;;;;;5066582;28;20057;-73
2022/12/01 10:39:40;;;;;;;4.72;2.90;;;;;;;;;;5062753;28;20051;-73
2022/12/01 10:42:12;;;;;;;5.55;1.98;;;;;;;;;;5078278;28;20505;-73
2022/12/01 10:44:43;;;;;;;12.93;4.40;;;;;;;;;;5067636;28;20569;-75
2022/12/01 10:47:16;;;;;;;8.07;3.33;;;;;;;;;;5067520;28;20040;-73
2022/12/01 10:49:45;;;;;;;8.55;2.65;;;;;;;;;;5058093;28;20308;-74
2022/12/01 10:52:30;;;;;;;5.90;2.58;;;;;;;;;;5068237;28;20044;-74
2022/12/01 10:54:58;;;;;;;10.65;3.63;;;;;;;;;;5069465;28;20497;-74
2022/12/01 10:57:27;;;;;;;9.43;3.83;;;;;;;;;;5069888;28;20053;-73
2022/12/01 10:59:58;;;;;;;3.42;1.80;;;;;;;;;;5068110;28;20036;-73
2022/12/01 11:02:28;;;;;;;12.32;2.97;;;;;;;;;;5079727;28;20052;-73
2022/12/01 11:04:58;;;;;;;5.93;1.80;;;;;;;;;;5065476;28;20105;-70
2022/12/01 11:07:28;;;;;;;5.57;3.58;;;;;;;;;;5065494;28;20500;-73
2022/12/01 11:10:04;;;;;;;5.65;4.50;;;;;;;;;;5067139;28;21910;-73
2022/12/01 11:12:33;;;;;;;5.47;2.47;;;;;;;;;;5068599;28;20484;-73
2022/12/01 11:15:03;;;;;;;10.50;2.90;;;;;;;;;;5067003;28;20052;-73
2022/12/01 11:17:32;;;;;;;5.00;2.75;;;;;;;;;;5072681;28;20135;-72
2022/12/01 11:20:21;;;;;;;5.40;2.50;;;;;;;;;;5086481;28;20389;-72
2022/12/01 11:22:50;;;;;;;4.80;2.88;;;;;;;;;;5075811;28;20045;-73
2022/12/01 11:25:20;;;;;;;12.05;4.55;;;;;;;;;;5067942;28;20060;-73
2022/12/01 11:27:51;;;;;;;4.93;2.67;;;;;;;;;;5066699;28;20053;-73
2022/12/01 11:30:23;;;;;;;13.43;3.17;;;;;;;;;;5063658;28;20041;-73
2022/12/01 11:32:53;;;;;;;5.47;2.03;;;;;;;;;;5073117;28;20044;-72
2022/12/01 11:35:23;;;;;;;12.20;3.22;;;;;;;;;;5075623;28;20493;-73
2022/12/01 11:37:53;;;;;;;7.00;2.88;;;;;;;;;;5070715;28;20113;-72
2022/12/01 11:40:46;;;;;;;6.38;2.63;;;;;;;;;;5066142;28;20048;-73
2022/12/01 11:43:23;;;;;;;7.55;3.65;;;;;;;;;;5064732;28;20372;-72
2022/12/01 11:45:54;;;;;;;4.78;1.30;;;;;;;;;;5058010;28;20143;-72
2022/12/01 11:48:26;;;;;;;8.15;2.65;;;;;;;;;;5067976;28;20040;-72
2022/12/01 11:51:02;;;;;;;8.73;2.35;;;;;;;;;;5065890;28;20683;-71
2022/12/01 11:53:31;;;;;;;3.25;2.10;;;;;;;;;;5063536;28;20056;-72
2022/12/01 11:56:24;;;;;;;13.98;3.92;;;;;;;;;;5071896;28;20147;-73
2022/12/01 11:58:56;;;;;;;12.82;2.55;;;;;;;;;;5037370;28;20131;-71
2022/12/01 12:01:33;;;;;;;3.47;2.33;;;;;;;;;;5060783;28;20055;-72
2022/12/01 12:04:07;;;;;;;7.57;2.75;;;;;;;;;;5058366;28;20053;-73
2022/12/01 12:06:39;;;;;;;10.02;2.92;;;;;;;;;;5063981;28;20044;-72
2022/12/01 12:09:24;;;;;;;8.65;2.15;;;;;;;;;;5058290;28;20152;-72
2022/12/01 12:11:55;;;;;;;13.02;3.22;;;;;;;;;;5058585;28;20052;-72
2022/12/01 12:14:39;;;;;;;7.65;2.92;;;;;;;;;;5067506;28;20507;-71
2022/12/01 12:17:20;;;;;;;4.75;1.23;;;;;;;;;;5061482;28;20464;-70
2022/12/01 12:20:06;;;;;;;12.45;3.05;;;;;;;;;;5061943;28;20055;-72
2022/12/01 12:22:43;;;;;;;3.38;3.08;;;;;;;;;;5069787;28;20045;-72
2022/12/01 12:25:19;;;;;;;10.13;4.43;;;;;;;;;;5050410;28;20111;-73
2022/12/01 12:27:51;;;;;;;8.57;3.55;;;;;;;;;;5044525;28;20068;-72
2022/12/01 12:30:22;;;;;;;3.90;2.15;;;;;;;;;;5053092;28;20140;-72
2022/12/01 12:33:21;;;;;;;2.97;1.73;;;;;;;;;;5041915;28;20139;-72
2022/12/01 12:35:53;;;;;;;5.60;2.17;;;;;;;;;;5036286;28;20124;-72
2022/12/01 12:38:33;;;;;;;8.15;2.38;;;;;;;;;;5045638;28;20507;-72
2022/12/01 12:41:09;;;;;;;10.32;2.97;;;;;;;;;;5040863;28;20045;-73
2022/12/01 12:43:42;;;;;;;9.45;2.58;;;;;;;;;;5047870;28;20053;-73
2022/12/01 12:46:11;;;;;;;8.45;2.53;;;;;;;;;;5038430;28;20132;-73
2022/12/01 12:48:50;;;;;;;9.35;2.85;;;;;;;;;;5049708;28;20053;-73
2022/12/01 12:51:40;;;;;;;3.92;1.70;;;;;;;;;;5051630;28;20060;-73
2022/12/01 12:54:14;;;;;;;7.13;2.92;;;;;;;;;;5052950;28;20060;-73
2022/12/01 12:56:45;;;;;;;3.85;2.15;;;;;;;;;;5052394;28;20068;-73
2022/12/01 12:59:17;;;;;;;11.07;2.58;;;;;;;;;;5042888;28;20127;-74
2022/12/01 13:01:48;;;;;;;4.22;2.42;;;;;;;;;;5046450;28;20087;-71
2022/12/01 13:04:19;;;;;;;12.18;4.03;;;;;;;;;;5042488;28;20498;-73
2022/12/01 13:06:49;;;;;;;7.18;3.25;;;;;;;;;;5053810;28;20065;-74
2022/12/01 13:09:20;;;;;;;6.68;2.85;;;;;;;;;;5050910;28;20226;-73
2022/12/01 13:11:52;;;;;;;7.50;2.45;;;;;;;;;;5043784;28;20056;-71
2022/12/01 13:14:24;;;;;;;5.55;2.60;;;;;;;;;;5046291;28;20168;-75
2022/12/01 13:16:54;;;;;;;10.25;2.35;;;;;;;;;;5049461;28;20523;-74
2022/12/01 13:19:27;;;;;;;6.35;3.28;;;;;;;;;;5040886;28;20049;-73
2022/12/01 13:21:55;;;;;;;7.38;3.25;;;;;;;;;;5043757;28;20048;-74
2022/12/01 13:24:25;;;;;;;3.40;1.85;;;;;;;;;;5056047;28;20056;-74
2022/12/01 13:26:55;;;;;;;8.77;2.97;;;;;;;;;;5067326;28;20547;-74
2022/12/01 13:29:25;;;;;;;6.03;2.47;;;;;;;;;;5062140;28;20106;-74
2022/12/01 13:31:54;;;;;;;8.32;2.53;;;;;;;;;;5068492;28;20056;-74
2022/12/01 13:34:29;;;;;;;6.13;2.22;;;;;;;;;;5067717;28;20040;-72
2022/12/01 13:36:58;;;;;;;15.55;3.53;;;;;;;;;;5065259;28;20139;-74
2022/12/01 13:39:27;;;;;;;6.15;1.77;;;;;;;;;;5065692;28;20080;-73
2022/12/01 13:42:06;;;;;;;4.32;1.88;;;;;;;;;;5064441;28;20174;-74
2022/12/01 13:44:39;;;;;;;14.32;3.03;;;;;;;;;;5064883;28;20080;-71
2022/12/01 13:47:23;;;;;;;7.28;3.80;;;;;;;;;;5064114;28;20049;-73
2022/12/01 13:49:53;;;;;;;8.30;3.17;;;;;;;;;;5064458;28;20063;-71
2022/12/01 13:52:30;;;;;;;7.57;3.33;;;;;;;;;;5065635;28;20056;-75
2022/12/01 13:55:03;;;;;;;4.88;1.58;;;;;;;;;;5067830;28;20445;-73
2022/12/01 13:57:32;;;;;;;7.15;3.53;;;;;;;;;;5067845;28;20449;-74
2022/12/01 14:00:22;;;;;;;5.10;1.92;;;;;;;;;;5067026;28;20527;-73
2022/12/01 14:03:09;;;;;;;7.05;3.15;;;;;;;;;;5064717;28;20048;-74
2022/12/01 14:05:46;;;;;;;5.05;1.58;;;;;;;;;;5068065;28;20519;-74
2022/12/01 14:08:16;;;;;;;3.80;2.13;;;;;;;;;;5066050;28;20064;-74
2022/12/01 14:10:55;;;;;;;3.78;1.13;;;;;;;;;;5072949;28;20097;-74
2022/12/01 14:13:24;;;;;;;3.80;1.98;;;;;;;;;;5060675;28;20050;-74
2022/12/01 14:15:54;;;;;;;9.95;2.95;;;;;;;;;;5065872;28;20060;-71
2022/12/01 14:18:34;;;;;;;4.95;1.85;;;;;;;;;;5069869;28;20144;-74
2022/12/01 14:21:05;;;;;;;6.80;3.08;;;;;;;;;;5076034;28;20063;-73
2022/12/01 14:23:35;;;;;;;4.00;2.15;;;;;;;;;;5068518;28;20083;-74
2022/12/01 14:26:11;;;;;;;7.85;2.47;;;;;;;;;;5080109;28;20573;-74
2022/12/01 14:28:58;;;;;;;16.17;2.20;;;;;;;;;;5068516;28;20534;-74
2022/12/01 14:31:54;;;;;;;6.18;2.35;;;;;;;;;;5075767;28;20048;-74
2022/12/01 14:34:25;;;;;;;8.65;3.13;;;;;;;;;;5067161;28;20127;-72
2022/12/01 14:36:56;;;;;;;3.65;1.90;;;;;;;;;;5068457;28;20052;-74
2022/12/01 14:39:26;;;;;;;5.07;1.75;;;;;;;;;;5073427;28;20070;-73
2022/12/01 14:41:57;;;;;;;21.15;3.95;;;;;;;;;;5076570;28;20053;-73
2022/12/01 14:44:27;;;;;;;12.10;2.67;;;;;;;;;;5069692;28;20097;-74
2022/12/01 14:46:58;;;;;;;14.25;2.92;;;;;;;;;;5072756;28;20178;-73
2022/12/01 14:49:28;;;;;;;5.63;1.75;;;;;;;;;;5062604;28;20048;-74
2022/12/01 14:52:01;;;;;;;10.32;3.05;;;;;;;;;;5069710;28;20128;-74
2022/12/01 14:54:31;;;;;;;12.65;2.40;;;;;;;;;;5067543;28;20473;-74
2022/12/01 14:57:02;;;;;;;2.78;1.67;;;;;;;;;;5074006;28;20060;-76
2022/12/01 14:59:36;;;;;;;8.80;2.85;;;;;;;;;;5069848;28;20492;-74
2022/12/01 15:02:07;;;;;;;5.80;2.45;;;;;;;;;;5072632;28;20052;-75
2022/12/01 15:04:37;;;;;;;6.40;2.28;;;;;;;;;;5067460;28;20095;-75
2022/12/01 15:07:07;;;;;;;6.78;2.33;;;;;;;;;;5071412;28;20056;-74
2022/12/01 15:09:36;;;;;;;8.48;2.45;;;;;;;;;;5068734;28;20048;-74
2022/12/01 15:12:06;;;;;;;6.15;2.40;;;;;;;;;;5078789;28;20076;-74
2022/12/01 15:14:36;;;;;;;9.02;2.65;;;;;;;;;;5080731;28;20048;-73